sensor_id;sensor_type;location;lat;lon;timestamp;P1;durP1;ratioP1;P2;durP2;ratioP2
75496;SDS011;64074;47.540;19.072;2023-12-20T00:00:18;42.40;;;14.63;;
75496;SDS011;64074;47.540;19.072;2023-12-20T00:03:28;39.63;;;14.52;;
75496;SDS011;64074;47.540;19.072;2023-12-20T00:06:49;41.85;;;14.88;;
75496;SDS011;64074;47.540;19.072;2023-12-20T00:10:23;41.70;;;15.20;;
75496;SDS011;64074;47.540;19.072;2023-12-20T00:13:50;45.87;;;14.73;;
75496;SDS011;64074;47.540;19.072;2023-12-20T00:17:11;42.43;;;14.73;;
75496;SDS011;64074;47.540;19.072;2023-12-20T00:20:33;39.92;;;13.73;;
75496;SDS011;64074;47.540;19.072;2023-12-20T00:23:54;43.08;;;13.63;;
75496;SDS011;64074;47.540;19.072;2023-12-20T00:27:05;47.30;;;15.00;;
75496;SDS011;64074;47.540;19.072;2023-12-20T00:30:15;50.60;;;14.53;;
75496;SDS011;64074;47.540;19.072;2023-12-20T00:33:52;48.20;;;13.87;;
75496;SDS011;64074;47.540;19.072;2023-12-20T00:37:19;66.35;;;14.95;;
75496;SDS011;64074;47.540;19.072;2023-12-20T00:40:30;49.58;;;13.85;;
75496;SDS011;64074;47.540;19.072;2023-12-20T00:43:44;46.58;;;14.75;;
75496;SDS011;64074;47.540;19.072;2023-12-20T00:46:48;42.23;;;14.47;;
75496;SDS011;64074;47.540;19.072;2023-12-20T00:49:57;49.50;;;15.23;;
75496;SDS011;64074;47.540;19.072;2023-12-20T00:53:18;39.25;;;14.20;;
75496;SDS011;64074;47.540;19.072;2023-12-20T00:56:40;44.22;;;14.45;;
75496;SDS011;64074;47.540;19.072;2023-12-20T00:59:49;40.95;;;14.57;;
75496;SDS011;64074;47.540;19.072;2023-12-20T01:03:24;41.63;;;14.50;;
75496;SDS011;64074;47.540;19.072;2023-12-20T01:06:48;42.97;;;14.00;;
75496;SDS011;64074;47.540;19.072;2023-12-20T01:09:58;43.88;;;13.73;;
75496;SDS011;64074;47.540;19.072;2023-12-20T01:13:27;48.03;;;13.40;;
75496;SDS011;64074;47.540;19.072;2023-12-20T01:16:54;43.47;;;13.40;;
75496;SDS011;64074;47.540;19.072;2023-12-20T01:20:04;34.67;;;12.53;;
75496;SDS011;64074;47.540;19.072;2023-12-20T01:23:28;38.27;;;12.63;;
75496;SDS011;64074;47.540;19.072;2023-12-20T01:26:51;41.30;;;13.25;;
75496;SDS011;64074;47.540;19.072;2023-12-20T01:30:20;39.25;;;12.38;;
75496;SDS011;64074;47.540;19.072;2023-12-20T01:33:37;43.70;;;12.85;;
75496;SDS011;64074;47.540;19.072;2023-12-20T01:36:54;38.27;;;12.67;;
75496;SDS011;64074;47.540;19.072;2023-12-20T01:40:04;43.47;;;12.57;;
75496;SDS011;64074;47.540;19.072;2023-12-20T01:43:34;39.35;;;12.77;;
75496;SDS011;64074;47.540;19.072;2023-12-20T01:46:59;39.28;;;12.65;;
75496;SDS011;64074;47.540;19.072;2023-12-20T01:50:33;39.10;;;12.23;;
75496;SDS011;64074;47.540;19.072;2023-12-20T01:53:54;45.20;;;12.30;;
75496;SDS011;64074;47.540;19.072;2023-12-20T01:57:19;35.23;;;13.30;;
75496;SDS011;64074;47.540;19.072;2023-12-20T02:00:40;44.55;;;12.65;;
75496;SDS011;64074;47.540;19.072;2023-12-20T02:03:44;43.40;;;13.25;;
75496;SDS011;64074;47.540;19.072;2023-12-20T02:06:56;49.80;;;13.10;;
75496;SDS011;64074;47.540;19.072;2023-12-20T02:10:09;41.83;;;13.40;;
75496;SDS011;64074;47.540;19.072;2023-12-20T02:13:17;39.63;;;12.63;;
75496;SDS011;64074;47.540;19.072;2023-12-20T02:16:24;41.63;;;12.40;;
75496;SDS011;64074;47.540;19.072;2023-12-20T02:19:29;42.28;;;13.68;;
75496;SDS011;64074;47.540;19.072;2023-12-20T02:22:39;39.63;;;13.45;;
75496;SDS011;64074;47.540;19.072;2023-12-20T02:26:04;37.50;;;12.73;;
75496;SDS011;64074;47.540;19.072;2023-12-20T02:29:19;49.07;;;13.60;;
75496;SDS011;64074;47.540;19.072;2023-12-20T02:32:30;41.60;;;11.95;;
75496;SDS011;64074;47.540;19.072;2023-12-20T02:35:34;49.45;;;13.60;;
75496;SDS011;64074;47.540;19.072;2023-12-20T02:38:38;43.80;;;13.10;;
75496;SDS011;64074;47.540;19.072;2023-12-20T02:41:48;50.87;;;13.27;;
75496;SDS011;64074;47.540;19.072;2023-12-20T02:45:14;45.77;;;13.47;;
75496;SDS011;64074;47.540;19.072;2023-12-20T02:48:38;45.40;;;14.98;;
75496;SDS011;64074;47.540;19.072;2023-12-20T02:51:42;44.22;;;14.57;;
75496;SDS011;64074;47.540;19.072;2023-12-20T02:54:52;45.35;;;14.30;;
75496;SDS011;64074;47.540;19.072;2023-12-20T02:58:22;41.77;;;12.67;;
75496;SDS011;64074;47.540;19.072;2023-12-20T03:01:49;46.03;;;13.90;;
75496;SDS011;64074;47.540;19.072;2023-12-20T03:05:17;43.05;;;14.32;;
75496;SDS011;64074;47.540;19.072;2023-12-20T03:08:27;42.30;;;13.95;;
75496;SDS011;64074;47.540;19.072;2023-12-20T03:12:02;46.03;;;14.45;;
75496;SDS011;64074;47.540;19.072;2023-12-20T03:15:23;44.23;;;14.83;;
75496;SDS011;64074;47.540;19.072;2023-12-20T03:18:44;46.83;;;15.67;;
75496;SDS011;64074;47.540;19.072;2023-12-20T03:22:04;44.17;;;14.93;;
75496;SDS011;64074;47.540;19.072;2023-12-20T03:25:20;54.03;;;13.88;;
75496;SDS011;64074;47.540;19.072;2023-12-20T03:28:24;39.65;;;13.15;;
75496;SDS011;64074;47.540;19.072;2023-12-20T03:31:31;42.60;;;15.23;;
75496;SDS011;64074;47.540;19.072;2023-12-20T03:34:41;42.83;;;14.80;;
75496;SDS011;64074;47.540;19.072;2023-12-20T03:37:55;43.97;;;15.23;;
75496;SDS011;64074;47.540;19.072;2023-12-20T03:41:10;40.35;;;14.98;;
75496;SDS011;64074;47.540;19.072;2023-12-20T03:44:28;39.97;;;13.88;;
75496;SDS011;64074;47.540;19.072;2023-12-20T03:47:32;41.80;;;14.70;;
75496;SDS011;64074;47.540;19.072;2023-12-20T03:50:43;48.70;;;15.17;;
75496;SDS011;64074;47.540;19.072;2023-12-20T03:54:05;43.20;;;14.50;;
75496;SDS011;64074;47.540;19.072;2023-12-20T03:57:15;47.33;;;14.35;;
75496;SDS011;64074;47.540;19.072;2023-12-20T04:00:51;43.85;;;14.50;;
75496;SDS011;64074;47.540;19.072;2023-12-20T04:04:08;40.43;;;13.83;;
75496;SDS011;64074;47.540;19.072;2023-12-20T04:07:13;43.30;;;15.33;;
75496;SDS011;64074;47.540;19.072;2023-12-20T04:10:25;42.97;;;14.63;;
75496;SDS011;64074;47.540;19.072;2023-12-20T04:13:55;38.80;;;14.55;;
75496;SDS011;64074;47.540;19.072;2023-12-20T04:17:08;38.17;;;15.05;;
75496;SDS011;64074;47.540;19.072;2023-12-20T04:20:20;46.23;;;15.20;;
75496;SDS011;64074;47.540;19.072;2023-12-20T04:23:42;44.30;;;15.13;;
75496;SDS011;64074;47.540;19.072;2023-12-20T04:27:06;43.35;;;15.02;;
75496;SDS011;64074;47.540;19.072;2023-12-20T04:30:29;35.28;;;14.38;;
75496;SDS011;64074;47.540;19.072;2023-12-20T04:33:39;39.22;;;13.90;;
75496;SDS011;64074;47.540;19.072;2023-12-20T04:37:04;43.47;;;15.40;;
75496;SDS011;64074;47.540;19.072;2023-12-20T04:40:35;32.17;;;13.83;;
75496;SDS011;64074;47.540;19.072;2023-12-20T04:43:51;38.78;;;15.32;;
75496;SDS011;64074;47.540;19.072;2023-12-20T04:47:15;39.80;;;14.07;;
75496;SDS011;64074;47.540;19.072;2023-12-20T04:50:32;37.17;;;14.63;;
75496;SDS011;64074;47.540;19.072;2023-12-20T04:53:42;40.03;;;14.53;;
75496;SDS011;64074;47.540;19.072;2023-12-20T04:56:49;42.80;;;15.10;;
75496;SDS011;64074;47.540;19.072;2023-12-20T04:59:52;37.55;;;14.52;;
75496;SDS011;64074;47.540;19.072;2023-12-20T05:02:59;41.20;;;14.77;;
75496;SDS011;64074;47.540;19.072;2023-12-20T05:06:03;40.42;;;15.05;;
75496;SDS011;64074;47.540;19.072;2023-12-20T05:09:06;38.23;;;14.57;;
75496;SDS011;64074;47.540;19.072;2023-12-20T05:12:17;42.17;;;15.63;;
75496;SDS011;64074;47.540;19.072;2023-12-20T05:15:22;42.05;;;14.82;;
75496;SDS011;64074;47.540;19.072;2023-12-20T05:18:28;43.78;;;15.05;;
75496;SDS011;64074;47.540;19.072;2023-12-20T05:21:33;43.20;;;15.55;;
75496;SDS011;64074;47.540;19.072;2023-12-20T05:24:40;45.33;;;15.83;;
75496;SDS011;64074;47.540;19.072;2023-12-20T05:27:50;43.77;;;15.70;;
75496;SDS011;64074;47.540;19.072;2023-12-20T05:31:03;52.83;;;16.50;;
75496;SDS011;64074;47.540;19.072;2023-12-20T05:34:23;56.42;;;16.05;;
75496;SDS011;64074;47.540;19.072;2023-12-20T05:37:40;50.45;;;15.95;;
75496;SDS011;64074;47.540;19.072;2023-12-20T05:40:51;47.03;;;15.97;;
75496;SDS011;64074;47.540;19.072;2023-12-20T05:43:59;47.87;;;16.50;;
75496;SDS011;64074;47.540;19.072;2023-12-20T05:47:05;58.28;;;18.10;;
75496;SDS011;64074;47.540;19.072;2023-12-20T05:50:16;60.10;;;16.67;;
75496;SDS011;64074;47.540;19.072;2023-12-20T05:53:22;76.03;;;16.55;;
75496;SDS011;64074;47.540;19.072;2023-12-20T05:56:31;56.53;;;17.30;;
75496;SDS011;64074;47.540;19.072;2023-12-20T05:59:47;55.30;;;16.53;;
75496;SDS011;64074;47.540;19.072;2023-12-20T06:02:55;47.95;;;15.45;;
75496;SDS011;64074;47.540;19.072;2023-12-20T06:05:58;51.90;;;16.88;;
75496;SDS011;64074;47.540;19.072;2023-12-20T06:09:18;52.92;;;17.25;;
75496;SDS011;64074;47.540;19.072;2023-12-20T06:12:27;51.53;;;16.93;;
75496;SDS011;64074;47.540;19.072;2023-12-20T06:15:59;50.80;;;17.10;;
75496;SDS011;64074;47.540;19.072;2023-12-20T06:19:15;53.65;;;17.48;;
75496;SDS011;64074;47.540;19.072;2023-12-20T06:22:44;54.70;;;16.80;;
75496;SDS011;64074;47.540;19.072;2023-12-20T06:25:54;50.20;;;17.13;;
75496;SDS011;64074;47.540;19.072;2023-12-20T06:29:29;54.43;;;17.40;;
75496;SDS011;64074;47.540;19.072;2023-12-20T06:32:51;49.80;;;17.23;;
75496;SDS011;64074;47.540;19.072;2023-12-20T06:36:13;56.53;;;17.75;;
75496;SDS011;64074;47.540;19.072;2023-12-20T06:39:24;52.38;;;17.75;;
75496;SDS011;64074;47.540;19.072;2023-12-20T06:42:54;57.42;;;18.15;;
75496;SDS011;64074;47.540;19.072;2023-12-20T06:46:29;60.73;;;18.37;;
75496;SDS011;64074;47.540;19.072;2023-12-20T06:49:40;55.23;;;18.40;;
75496;SDS011;64074;47.540;19.072;2023-12-20T06:53:07;49.95;;;16.08;;
75496;SDS011;64074;47.540;19.072;2023-12-20T06:56:17;48.55;;;16.92;;
75496;SDS011;64074;47.540;19.072;2023-12-20T06:59:45;57.30;;;16.45;;
75496;SDS011;64074;47.540;19.072;2023-12-20T07:03:09;57.77;;;16.77;;
75496;SDS011;64074;47.540;19.072;2023-12-20T07:06:29;56.60;;;18.20;;
75496;SDS011;64074;47.540;19.072;2023-12-20T07:09:56;54.65;;;17.15;;
75496;SDS011;64074;47.540;19.072;2023-12-20T07:13:16;52.10;;;15.52;;
75496;SDS011;64074;47.540;19.072;2023-12-20T07:16:37;50.83;;;16.48;;
75496;SDS011;64074;47.540;19.072;2023-12-20T07:19:57;43.83;;;15.60;;
75496;SDS011;64074;47.540;19.072;2023-12-20T07:23:19;47.87;;;15.43;;
75496;SDS011;64074;47.540;19.072;2023-12-20T07:26:24;59.97;;;17.33;;
75496;SDS011;64074;47.540;19.072;2023-12-20T07:29:29;50.47;;;16.27;;
75496;SDS011;64074;47.540;19.072;2023-12-20T07:32:38;48.95;;;15.75;;
75496;SDS011;64074;47.540;19.072;2023-12-20T07:35:49;47.37;;;15.03;;
75496;SDS011;64074;47.540;19.072;2023-12-20T07:38:55;48.37;;;15.73;;
75496;SDS011;64074;47.540;19.072;2023-12-20T07:42:02;47.70;;;16.40;;
75496;SDS011;64074;47.540;19.072;2023-12-20T07:45:08;44.47;;;16.17;;
75496;SDS011;64074;47.540;19.072;2023-12-20T07:48:14;47.75;;;17.25;;
75496;SDS011;64074;47.540;19.072;2023-12-20T07:51:24;45.10;;;15.80;;
75496;SDS011;64074;47.540;19.072;2023-12-20T07:54:41;39.00;;;15.83;;
75496;SDS011;64074;47.540;19.072;2023-12-20T07:58:01;44.03;;;15.55;;
75496;SDS011;64074;47.540;19.072;2023-12-20T08:01:12;52.15;;;20.17;;
75496;SDS011;64074;47.540;19.072;2023-12-20T08:04:26;44.08;;;15.68;;
75496;SDS011;64074;47.540;19.072;2023-12-20T08:07:45;44.40;;;16.10;;
75496;SDS011;64074;47.540;19.072;2023-12-20T08:11:14;40.90;;;16.27;;
75496;SDS011;64074;47.540;19.072;2023-12-20T08:14:45;44.90;;;15.80;;
75496;SDS011;64074;47.540;19.072;2023-12-20T08:18:13;45.72;;;16.35;;
75496;SDS011;64074;47.540;19.072;2023-12-20T08:21:31;48.20;;;17.27;;
75496;SDS011;64074;47.540;19.072;2023-12-20T08:24:52;48.17;;;17.63;;
75496;SDS011;64074;47.540;19.072;2023-12-20T08:28:20;46.70;;;16.70;;
75496;SDS011;64074;47.540;19.072;2023-12-20T08:31:37;48.17;;;17.00;;
75496;SDS011;64074;47.540;19.072;2023-12-20T08:34:58;47.80;;;17.45;;
75496;SDS011;64074;47.540;19.072;2023-12-20T08:38:25;50.50;;;19.10;;
75496;SDS011;64074;47.540;19.072;2023-12-20T08:41:35;50.77;;;18.63;;
75496;SDS011;64074;47.540;19.072;2023-12-20T08:44:49;44.13;;;17.03;;
75496;SDS011;64074;47.540;19.072;2023-12-20T08:48:11;50.70;;;19.00;;
75496;SDS011;64074;47.540;19.072;2023-12-20T08:51:35;52.10;;;19.35;;
75496;SDS011;64074;47.540;19.072;2023-12-20T08:54:56;53.42;;;19.05;;
75496;SDS011;64074;47.540;19.072;2023-12-20T08:58:18;49.87;;;19.63;;
75496;SDS011;64074;47.540;19.072;2023-12-20T09:01:35;51.27;;;20.00;;
75496;SDS011;64074;47.540;19.072;2023-12-20T09:04:51;51.50;;;19.38;;
75496;SDS011;64074;47.540;19.072;2023-12-20T09:08:22;49.72;;;18.80;;
75496;SDS011;64074;47.540;19.072;2023-12-20T09:11:32;57.08;;;20.05;;
75496;SDS011;64074;47.540;19.072;2023-12-20T09:15:06;48.83;;;19.00;;
75496;SDS011;64074;47.540;19.072;2023-12-20T09:18:16;53.10;;;20.33;;
75496;SDS011;64074;47.540;19.072;2023-12-20T09:21:46;50.38;;;19.40;;
75496;SDS011;64074;47.540;19.072;2023-12-20T09:25:13;53.58;;;19.02;;
75496;SDS011;64074;47.540;19.072;2023-12-20T09:28:34;48.70;;;17.70;;
75496;SDS011;64074;47.540;19.072;2023-12-20T09:31:54;56.60;;;21.80;;
75496;SDS011;64074;47.540;19.072;2023-12-20T09:35:14;50.67;;;19.13;;
75496;SDS011;64074;47.540;19.072;2023-12-20T09:38:35;51.17;;;18.88;;
75496;SDS011;64074;47.540;19.072;2023-12-20T09:45:22;48.58;;;17.67;;
75496;SDS011;64074;47.540;19.072;2023-12-20T09:48:39;52.07;;;19.90;;
75496;SDS011;64074;47.540;19.072;2023-12-20T09:52:03;59.83;;;20.70;;
75496;SDS011;64074;47.540;19.072;2023-12-20T09:55:23;53.28;;;19.63;;
75496;SDS011;64074;47.540;19.072;2023-12-20T09:58:38;53.50;;;20.50;;
75496;SDS011;64074;47.540;19.072;2023-12-20T10:01:47;56.30;;;21.20;;
75496;SDS011;64074;47.540;19.072;2023-12-20T10:04:58;54.07;;;20.70;;
75496;SDS011;64074;47.540;19.072;2023-12-20T10:08:15;59.30;;;21.87;;
75496;SDS011;64074;47.540;19.072;2023-12-20T10:11:42;59.75;;;21.17;;
75496;SDS011;64074;47.540;19.072;2023-12-20T10:15:03;57.30;;;21.27;;
75496;SDS011;64074;47.540;19.072;2023-12-20T10:18:19;54.13;;;21.00;;
75496;SDS011;64074;47.540;19.072;2023-12-20T10:21:23;56.30;;;20.97;;
75496;SDS011;64074;47.540;19.072;2023-12-20T10:24:29;58.50;;;20.90;;
75496;SDS011;64074;47.540;19.072;2023-12-20T10:27:37;60.80;;;21.83;;
75496;SDS011;64074;47.540;19.072;2023-12-20T10:30:44;61.47;;;22.02;;
75496;SDS011;64074;47.540;19.072;2023-12-20T10:33:48;59.70;;;23.02;;
75496;SDS011;64074;47.540;19.072;2023-12-20T10:37:01;63.50;;;23.73;;
75496;SDS011;64074;47.540;19.072;2023-12-20T10:40:15;68.30;;;24.10;;
75496;SDS011;64074;47.540;19.072;2023-12-20T10:43:37;62.38;;;23.17;;
75496;SDS011;64074;47.540;19.072;2023-12-20T10:47:06;61.85;;;24.88;;
75496;SDS011;64074;47.540;19.072;2023-12-20T10:50:16;70.25;;;24.70;;
75496;SDS011;64074;47.540;19.072;2023-12-20T10:53:47;69.90;;;26.93;;
75496;SDS011;64074;47.540;19.072;2023-12-20T10:57:08;76.60;;;27.30;;
75496;SDS011;64074;47.540;19.072;2023-12-20T11:00:29;70.30;;;25.77;;
75496;SDS011;64074;47.540;19.072;2023-12-20T11:03:55;67.00;;;25.13;;
75496;SDS011;64074;47.540;19.072;2023-12-20T11:07:20;72.13;;;26.83;;
75496;SDS011;64074;47.540;19.072;2023-12-20T11:10:42;65.67;;;26.23;;
75496;SDS011;64074;47.540;19.072;2023-12-20T11:14:05;73.60;;;27.40;;
75496;SDS011;64074;47.540;19.072;2023-12-20T11:17:24;62.28;;;24.75;;
75496;SDS011;64074;47.540;19.072;2023-12-20T11:20:44;55.85;;;24.38;;
75496;SDS011;64074;47.540;19.072;2023-12-20T11:24:06;57.03;;;23.30;;
75496;SDS011;64074;47.540;19.072;2023-12-20T11:27:19;57.93;;;24.30;;
75496;SDS011;64074;47.540;19.072;2023-12-20T11:30:27;59.87;;;24.27;;
75496;SDS011;64074;47.540;19.072;2023-12-20T11:33:48;61.63;;;25.67;;
75496;SDS011;64074;47.540;19.072;2023-12-20T11:36:57;60.97;;;26.13;;
75496;SDS011;64074;47.540;19.072;2023-12-20T11:40:02;62.03;;;26.95;;
75496;SDS011;64074;47.540;19.072;2023-12-20T11:43:32;67.40;;;27.20;;
75496;SDS011;64074;47.540;19.072;2023-12-20T11:46:52;64.53;;;27.87;;
75496;SDS011;64074;47.540;19.072;2023-12-20T11:50:04;68.55;;;27.33;;
75496;SDS011;64074;47.540;19.072;2023-12-20T11:53:32;66.88;;;27.38;;
75496;SDS011;64074;47.540;19.072;2023-12-20T11:56:48;60.25;;;25.27;;
75496;SDS011;64074;47.540;19.072;2023-12-20T12:00:09;60.07;;;25.33;;
75496;SDS011;64074;47.540;19.072;2023-12-20T12:03:25;54.13;;;23.43;;
75496;SDS011;64074;47.540;19.072;2023-12-20T12:06:44;34.50;;;17.42;;
75496;SDS011;64074;47.540;19.072;2023-12-20T12:09:49;34.58;;;16.50;;
75496;SDS011;64074;47.540;19.072;2023-12-20T12:12:53;35.35;;;16.27;;
75496;SDS011;64074;47.540;19.072;2023-12-20T12:16:04;30.60;;;15.57;;
75496;SDS011;64074;47.540;19.072;2023-12-20T12:19:24;32.73;;;15.27;;
75496;SDS011;64074;47.540;19.072;2023-12-20T12:22:28;31.95;;;15.95;;
75496;SDS011;64074;47.540;19.072;2023-12-20T12:25:38;30.88;;;14.18;;
75496;SDS011;64074;47.540;19.072;2023-12-20T12:28:55;23.33;;;11.52;;
75496;SDS011;64074;47.540;19.072;2023-12-20T12:32:17;20.83;;;10.73;;
75496;SDS011;64074;47.540;19.072;2023-12-20T12:35:40;19.80;;;10.20;;
75496;SDS011;64074;47.540;19.072;2023-12-20T12:39:02;22.85;;;10.82;;
75496;SDS011;64074;47.540;19.072;2023-12-20T12:42:24;25.45;;;11.00;;
75496;SDS011;64074;47.540;19.072;2023-12-20T12:45:46;23.15;;;10.90;;
75496;SDS011;64074;47.540;19.072;2023-12-20T12:49:09;21.97;;;10.67;;
75496;SDS011;64074;47.540;19.072;2023-12-20T12:52:32;22.60;;;10.17;;
75496;SDS011;64074;47.540;19.072;2023-12-20T12:55:42;22.17;;;10.65;;
75496;SDS011;64074;47.540;19.072;2023-12-20T12:58:54;19.52;;;9.88;;
75496;SDS011;64074;47.540;19.072;2023-12-20T13:01:57;20.08;;;10.57;;
75496;SDS011;64074;47.540;19.072;2023-12-20T13:05:12;20.97;;;10.30;;
75496;SDS011;64074;47.540;19.072;2023-12-20T13:08:29;19.87;;;9.60;;
75496;SDS011;64074;47.540;19.072;2023-12-20T13:11:56;21.08;;;10.45;;
75496;SDS011;64074;47.540;19.072;2023-12-20T13:15:23;20.52;;;9.80;;
75496;SDS011;64074;47.540;19.072;2023-12-20T13:18:38;18.55;;;9.38;;
75496;SDS011;64074;47.540;19.072;2023-12-20T13:21:51;18.60;;;9.40;;
75496;SDS011;64074;47.540;19.072;2023-12-20T13:25:28;20.53;;;9.77;;
75496;SDS011;64074;47.540;19.072;2023-12-20T13:28:53;21.23;;;10.23;;
75496;SDS011;64074;47.540;19.072;2023-12-20T13:32:24;17.70;;;9.52;;
75496;SDS011;64074;47.540;19.072;2023-12-20T13:35:41;20.80;;;9.90;;
75496;SDS011;64074;47.540;19.072;2023-12-20T13:38:57;20.60;;;9.67;;
75496;SDS011;64074;47.540;19.072;2023-12-20T13:42:17;18.87;;;9.47;;
75496;SDS011;64074;47.540;19.072;2023-12-20T13:45:36;21.63;;;10.30;;
75496;SDS011;64074;47.540;19.072;2023-12-20T13:49:00;18.98;;;9.23;;
75496;SDS011;64074;47.540;19.072;2023-12-20T13:52:11;23.52;;;10.52;;
75496;SDS011;64074;47.540;19.072;2023-12-20T14:04:11;18.38;;;9.50;;
75496;SDS011;64074;47.540;19.072;2023-12-20T14:07:35;18.08;;;9.50;;
75496;SDS011;64074;47.540;19.072;2023-12-20T14:10:46;17.02;;;9.07;;
75496;SDS011;64074;47.540;19.072;2023-12-20T14:14:03;19.23;;;9.90;;
75496;SDS011;64074;47.540;19.072;2023-12-20T14:17:24;18.97;;;9.57;;
75496;SDS011;64074;47.540;19.072;2023-12-20T14:20:35;22.40;;;10.50;;
75496;SDS011;64074;47.540;19.072;2023-12-20T14:23:43;18.90;;;9.45;;
75496;SDS011;64074;47.540;19.072;2023-12-20T14:26:58;17.60;;;9.27;;
75496;SDS011;64074;47.540;19.072;2023-12-20T14:30:09;14.90;;;7.77;;
75496;SDS011;64074;47.540;19.072;2023-12-20T14:33:16;14.90;;;7.47;;
75496;SDS011;64074;47.540;19.072;2023-12-20T14:36:27;15.35;;;7.55;;
75496;SDS011;64074;47.540;19.072;2023-12-20T14:39:41;15.13;;;7.82;;
75496;SDS011;64074;47.540;19.072;2023-12-20T14:42:49;18.88;;;8.70;;
75496;SDS011;64074;47.540;19.072;2023-12-20T14:45:59;13.87;;;6.63;;
75496;SDS011;64074;47.540;19.072;2023-12-20T14:49:07;13.07;;;6.57;;
75496;SDS011;64074;47.540;19.072;2023-12-20T14:52:18;13.00;;;6.60;;
75496;SDS011;64074;47.540;19.072;2023-12-20T14:55:32;11.13;;;5.97;;
75496;SDS011;64074;47.540;19.072;2023-12-20T14:58:44;13.52;;;7.00;;
75496;SDS011;64074;47.540;19.072;2023-12-20T15:01:48;14.63;;;7.37;;
75496;SDS011;64074;47.540;19.072;2023-12-20T15:04:58;14.03;;;6.87;;
75496;SDS011;64074;47.540;19.072;2023-12-20T15:08:10;13.98;;;6.72;;
75496;SDS011;64074;47.540;19.072;2023-12-20T15:11:28;14.52;;;7.60;;
75496;SDS011;64074;47.540;19.072;2023-12-20T15:14:57;17.65;;;8.77;;
75496;SDS011;64074;47.540;19.072;2023-12-20T15:18:30;16.33;;;7.97;;
75496;SDS011;64074;47.540;19.072;2023-12-20T15:21:43;17.07;;;8.50;;
75496;SDS011;64074;47.540;19.072;2023-12-20T15:25:07;17.58;;;8.68;;
75496;SDS011;64074;47.540;19.072;2023-12-20T15:28:32;18.85;;;9.25;;
75496;SDS011;64074;47.540;19.072;2023-12-20T15:31:46;16.90;;;8.02;;
75496;SDS011;64074;47.540;19.072;2023-12-20T15:35:07;19.27;;;8.90;;
75496;SDS011;64074;47.540;19.072;2023-12-20T15:38:31;13.03;;;6.57;;
75496;SDS011;64074;47.540;19.072;2023-12-20T15:41:48;18.70;;;8.25;;
75496;SDS011;64074;47.540;19.072;2023-12-20T15:45:15;17.48;;;8.25;;
75496;SDS011;64074;47.540;19.072;2023-12-20T15:48:38;17.73;;;8.73;;
75496;SDS011;64074;47.540;19.072;2023-12-20T15:51:54;20.67;;;9.30;;
75496;SDS011;64074;47.540;19.072;2023-12-20T15:55:19;18.87;;;8.70;;
75496;SDS011;64074;47.540;19.072;2023-12-20T15:58:34;22.20;;;9.93;;
75496;SDS011;64074;47.540;19.072;2023-12-20T16:01:53;23.35;;;10.20;;
75496;SDS011;64074;47.540;19.072;2023-12-20T16:05:22;22.42;;;10.73;;
75496;SDS011;64074;47.540;19.072;2023-12-20T16:08:32;20.80;;;9.97;;
75496;SDS011;64074;47.540;19.072;2023-12-20T16:11:55;19.53;;;9.90;;
75496;SDS011;64074;47.540;19.072;2023-12-20T16:14:58;21.65;;;11.05;;
75496;SDS011;64074;47.540;19.072;2023-12-20T16:18:08;18.50;;;9.30;;
75496;SDS011;64074;47.540;19.072;2023-12-20T16:21:22;21.65;;;10.50;;
75496;SDS011;64074;47.540;19.072;2023-12-20T16:24:33;20.67;;;10.10;;
75496;SDS011;64074;47.540;19.072;2023-12-20T16:27:45;21.10;;;9.87;;
75496;SDS011;64074;47.540;19.072;2023-12-20T16:31:13;19.88;;;10.23;;
75496;SDS011;64074;47.540;19.072;2023-12-20T16:34:20;21.40;;;10.70;;
75496;SDS011;64074;47.540;19.072;2023-12-20T16:37:28;20.45;;;9.93;;
75496;SDS011;64074;47.540;19.072;2023-12-20T16:40:32;24.50;;;11.37;;
75496;SDS011;64074;47.540;19.072;2023-12-20T16:43:43;22.43;;;11.57;;
75496;SDS011;64074;47.540;19.072;2023-12-20T16:47:00;22.63;;;11.65;;
75496;SDS011;64074;47.540;19.072;2023-12-20T16:50:11;22.85;;;11.23;;
75496;SDS011;64074;47.540;19.072;2023-12-20T16:53:39;21.95;;;11.38;;
75496;SDS011;64074;47.540;19.072;2023-12-20T16:56:52;31.60;;;12.77;;
75496;SDS011;64074;47.540;19.072;2023-12-20T17:00:21;22.57;;;11.57;;
75496;SDS011;64074;47.540;19.072;2023-12-20T17:03:32;25.50;;;11.63;;
75496;SDS011;64074;47.540;19.072;2023-12-20T17:06:58;23.77;;;11.30;;
75496;SDS011;64074;47.540;19.072;2023-12-20T17:10:01;22.95;;;11.38;;
75496;SDS011;64074;47.540;19.072;2023-12-20T17:13:05;20.23;;;10.07;;
75496;SDS011;64074;47.540;19.072;2023-12-20T17:16:34;23.27;;;11.40;;
75496;SDS011;64074;47.540;19.072;2023-12-20T17:19:43;22.23;;;10.80;;
75496;SDS011;64074;47.540;19.072;2023-12-20T17:23:16;22.23;;;10.70;;
75496;SDS011;64074;47.540;19.072;2023-12-20T17:26:26;23.50;;;11.05;;
75496;SDS011;64074;47.540;19.072;2023-12-20T17:29:49;20.60;;;10.67;;
75496;SDS011;64074;47.540;19.072;2023-12-20T17:33:02;20.67;;;10.57;;
75496;SDS011;64074;47.540;19.072;2023-12-20T17:36:13;23.52;;;11.45;;
75496;SDS011;64074;47.540;19.072;2023-12-20T17:39:28;23.63;;;11.88;;
75496;SDS011;64074;47.540;19.072;2023-12-20T17:42:35;23.65;;;11.10;;
75496;SDS011;64074;47.540;19.072;2023-12-20T17:45:49;23.03;;;10.63;;
75496;SDS011;64074;47.540;19.072;2023-12-20T17:49:12;21.33;;;10.50;;
75496;SDS011;64074;47.540;19.072;2023-12-20T17:52:39;22.73;;;10.25;;
75496;SDS011;64074;47.540;19.072;2023-12-20T17:55:42;20.70;;;10.07;;
75496;SDS011;64074;47.540;19.072;2023-12-20T17:58:49;22.88;;;10.48;;
75496;SDS011;64074;47.540;19.072;2023-12-20T18:02:01;22.67;;;11.13;;
75496;SDS011;64074;47.540;19.072;2023-12-20T18:05:15;20.10;;;10.17;;
75496;SDS011;64074;47.540;19.072;2023-12-20T18:08:37;20.38;;;10.27;;
75496;SDS011;64074;47.540;19.072;2023-12-20T18:11:59;20.40;;;10.25;;
75496;SDS011;64074;47.540;19.072;2023-12-20T18:15:15;16.38;;;8.70;;
75496;SDS011;64074;47.540;19.072;2023-12-20T18:18:40;20.17;;;9.70;;
75496;SDS011;64074;47.540;19.072;2023-12-20T18:22:02;20.57;;;10.40;;
75496;SDS011;64074;47.540;19.072;2023-12-20T18:25:22;22.40;;;10.27;;
75496;SDS011;64074;47.540;19.072;2023-12-20T18:28:36;23.83;;;11.30;;
75496;SDS011;64074;47.540;19.072;2023-12-20T18:31:43;23.30;;;11.20;;
75496;SDS011;64074;47.540;19.072;2023-12-20T18:34:54;21.00;;;10.40;;
75496;SDS011;64074;47.540;19.072;2023-12-20T18:38:18;21.87;;;10.77;;
75496;SDS011;64074;47.540;19.072;2023-12-20T18:41:38;26.45;;;11.82;;
75496;SDS011;64074;47.540;19.072;2023-12-20T18:44:57;24.80;;;12.18;;
75496;SDS011;64074;47.540;19.072;2023-12-20T18:48:16;21.92;;;10.70;;
75496;SDS011;64074;47.540;19.072;2023-12-20T18:51:30;20.87;;;10.40;;
75496;SDS011;64074;47.540;19.072;2023-12-20T18:55:00;22.47;;;11.27;;
75496;SDS011;64074;47.540;19.072;2023-12-20T18:58:24;19.83;;;10.73;;
75496;SDS011;64074;47.540;19.072;2023-12-20T19:01:41;20.70;;;10.85;;
75496;SDS011;64074;47.540;19.072;2023-12-20T19:04:54;22.55;;;10.48;;
75496;SDS011;64074;47.540;19.072;2023-12-20T19:08:28;22.70;;;11.17;;